CMB7 weather

Maxville (Bourdon Farm) Airport
Ontario, Canada

Public forecast

Using degrees Celsius for public forecast. Weather courtesy of forecast.io.

Closest aviation weather report (METAR) to Maxville (Bourdon Farm) Airport

Closest report is Massena International Richards Field, 19.1 nm (35.4 km) S. Retrieved 2020/01/23 00:53 UTC (1 hour ago):

KMSS 230053Z AUTO 21012KT 10SM CLR M01/M08 A3028 RMK AO2 SLP261 T10111083

Closest aviation forecast (TAF) to Maxville (Bourdon Farm) Airport

Closest forecast is Massena International Richards Field, 19.1 nm (35.4 km) S. Retrieved 2020-01-23 00:33 UTC (1 hour ago):

TAF KMSS 222330Z 2300/2324 23010KT P6SM BKN200 WS020/24040KT FM230900 22005KT P6SM BKN200